Airfield :
LOGIN :

Register | Disclaimer

   EN    FR    IT 

 










Legend :    VFR   Marginal VFR   IFR   Intensive IFR   Very Intensive IFR
Visi :
Ceiling :
>= 8 km
>= 3000ft
5 to 8 km
1000 to 3000 ft
1500m to 5 km
500 to 1000 ft
800 to 1500m
200 to 500 ft
< 800m
< 200 ft
Symbols :   Thunderstorms  Fog  Heavy snow  Heavy precipitations  Wind > 20 kt
SIGMETs :     Misc.  Thunderstorms  Icing  Turbulence  Mountain Waves  Volcanic Ashes






- Airport Elevation : 37 ft
- IATA code : OLB


LIEO - Olbia Costa Smeralda

CURRENT METAR :
  • 112350Z 23011KT 9999 -RA SCT020 10/08 Q1009

EXPIRED METARs :
  • 112320Z 24016KT 9999 -RA SCT015 11/07 Q1009
  • 112250Z 24012KT 9999 SCT030 11/07 Q1009
  • 112220Z 25011KT 9999 SCT030 11/06 Q1010
  • 112150Z 24011KT 9999 SCT050 11/06 Q1010
  • 112120Z 24014KT 9999 SCT050 12/06 Q1010
  • 112050Z 24012KT 9999 SCT050 11/06 Q1011

TAF TAF LIEO
Valid from the 12 at 00:00 until the 13 at 00:00 UTC


112300Z 1200/1224 24013KT 9999 SCT030
TEMPO 1200/1206 SHRA
BECMG 1201/1203 28022G32KT
BECMG 1218/1220 22012KT



MET'MAP, your aeronautical weather chart ! - Copyright ORBIFLY December 2007 - Disclaimer

ORBIFLY MET'MAP TEAM :

Programming & Development : Alexandra Zaïnal
Concept & original design : Baudouin d'Aumeries
Assistance for programming : Marc-Olivier Méhu
Technical & hardware support : Manuel Goepfert

Contact : metmap@orbifly.com




SOURCES & CREDITS :

   NOAA